Time;durP1;ratioP1;P1;durP2;ratioP2;P2;SDS_P1;SDS_P2;PMS_P1;PMS_P2;Temp;Humidity;BMP_temperature;BMP_pressure;BME280_temperature;BME280_humidity;BME280_pressure;Samples;Min_cycle;Max_cycle;Signal;HPM_P1;HPM_P2
2021/09/05 00:00:18;;;;;;;7.72;5.15;;;;;;;12.06;100.00;101403.22;5013126;28;20488;-82
2021/09/05 00:02:52;;;;;;;9.57;5.85;;;;;;;12.01;100.00;101397.09;5011795;28;20037;-82
2021/09/05 00:05:19;;;;;;;8.15;5.57;;;;;;;12.00;100.00;101403.28;5007241;28;20425;-82
2021/09/05 00:07:48;;;;;;;11.55;5.50;;;;;;;12.06;100.00;101411.16;5008713;28;20056;-83
2021/09/05 00:10:24;;;;;;;10.68;5.63;;;;;;;12.02;100.00;101401.50;5006426;28;20056;-82
2021/09/05 00:12:51;;;;;;;9.18;5.45;;;;;;;12.02;100.00;101404.13;5023875;28;20873;-83
2021/09/05 00:15:18;;;;;;;7.82;5.55;;;;;;;11.99;100.00;101406.84;5007474;28;20041;-82
2021/09/05 00:17:45;;;;;;;8.52;5.15;;;;;;;11.97;100.00;101403.34;5008479;28;20103;-82
2021/09/05 00:20:12;;;;;;;10.57;6.57;;;;;;;12.05;100.00;101409.41;5009999;28;20042;-83
2021/09/05 00:22:41;;;;;;;8.80;5.50;;;;;;;12.00;100.00;101406.81;5012680;28;20041;-83
2021/09/05 00:25:08;;;;;;;7.28;4.80;;;;;;;12.02;100.00;101409.44;5010874;28;20126;-82
2021/09/05 00:27:35;;;;;;;7.97;5.45;;;;;;;11.95;100.00;101413.97;4997083;28;20037;-83
2021/09/05 00:30:06;;;;;;;9.60;5.63;;;;;;;11.96;100.00;101405.13;5012013;28;20117;-81
2021/09/05 00:32:33;;;;;;;10.57;4.82;;;;;;;11.98;100.00;101407.75;5011484;28;20049;-82
2021/09/05 00:35:05;;;;;;;8.45;4.97;;;;;;;11.94;100.00;101414.88;4997076;28;20049;-81
2021/09/05 00:37:33;;;;;;;8.02;5.40;;;;;;;12.02;100.00;101409.44;4996321;28;20049;-83
2021/09/05 00:40:02;;;;;;;6.30;4.28;;;;;;;12.01;100.00;101415.63;5010315;28;20107;-81
2021/09/05 00:42:29;;;;;;;9.50;5.03;;;;;;;11.97;100.00;101416.59;5022978;28;20049;-81
2021/09/05 00:44:58;;;;;;;8.85;5.78;;;;;;;11.86;100.00;101415.88;5014412;28;20045;-81
2021/09/05 00:47:27;;;;;;;9.32;5.10;;;;;;;11.77;100.00;101411.50;5016007;28;20091;-82
2021/09/05 00:49:54;;;;;;;7.85;5.00;;;;;;;11.81;100.00;101413.28;5008659;28;20444;-82
2021/09/05 00:52:21;;;;;;;7.38;5.45;;;;;;;11.81;100.00;101406.19;5015160;28;20057;-82
2021/09/05 00:54:48;;;;;;;7.18;4.55;;;;;;;11.82;100.00;101422.97;5010423;28;20037;-83
2021/09/05 00:57:16;;;;;;;9.02;5.68;;;;;;;11.84;100.00;101416.75;4999452;28;20406;-84
2021/09/05 00:59:48;;;;;;;8.07;5.25;;;;;;;11.75;100.00;101422.13;5011758;28;20449;-87
2021/09/05 01:02:15;;;;;;;8.52;4.78;;;;;;;11.77;100.00;101420.34;5007550;28;20045;-82
2021/09/05 01:04:43;;;;;;;6.28;4.28;;;;;;;11.68;100.00;101431.03;5012445;28;20976;-81
2021/09/05 01:07:14;;;;;;;9.00;4.40;;;;;;;11.64;100.00;101432.00;4997733;28;20123;-82
2021/09/05 01:09:41;;;;;;;7.90;4.75;;;;;;;11.57;100.00;101436.47;5030541;28;20086;-81
2021/09/05 01:12:08;;;;;;;8.20;4.45;;;;;;;11.57;100.00;101436.47;5015501;28;20071;-82
2021/09/05 01:14:34;;;;;;;7.05;4.05;;;;;;;11.50;100.00;101439.22;4998074;28;20505;-83
2021/09/05 01:17:03;;;;;;;7.25;4.70;;;;;;;11.47;100.00;101433.97;5013788;28;20917;-83
2021/09/05 01:19:30;;;;;;;7.28;4.60;;;;;;;11.41;100.00;101439.31;4991745;28;20494;-83
2021/09/05 01:21:59;;;;;;;6.65;4.22;;;;;;;11.41;100.00;101445.47;5011758;28;20037;-84
2021/09/05 01:24:31;;;;;;;7.65;4.13;;;;;;;11.33;100.00;101444.69;4998235;28;20086;-83
2021/09/05 01:26:58;;;;;;;5.95;4.10;;;;;;;11.33;100.00;101454.41;5008333;28;20522;-83
2021/09/05 01:29:25;;;;;;;6.53;4.15;;;;;;;11.19;100.00;101454.56;4997986;28;20055;-83
2021/09/05 01:31:53;;;;;;;5.13;3.60;;;;;;;11.18;100.00;101445.75;5009611;28;20414;-84
2021/09/05 01:34:24;;;;;;;9.20;4.50;;;;;;;11.22;100.00;101457.16;4993838;28;20037;-84
2021/09/05 01:36:54;;;;;;;7.18;4.20;;;;;;;11.15;100.00;101453.69;4993360;28;20132;-83
2021/09/05 01:39:21;;;;;;;5.38;4.32;;;;;;;11.13;100.00;101454.63;5010312;28;20041;-83
2021/09/05 01:41:48;;;;;;;7.30;4.50;;;;;;;11.12;100.00;101456.38;5026615;28;20132;-82
2021/09/05 01:44:20;;;;;;;8.30;4.43;;;;;;;11.14;100.00;101459.88;5013703;28;20048;-82
2021/09/05 01:46:47;;;;;;;5.35;4.25;;;;;;;10.98;100.00;101458.28;5007681;28;20044;-83
2021/09/05 01:49:14;;;;;;;5.43;4.05;;;;;;;10.90;100.00;101452.19;4995718;28;20083;-83
2021/09/05 01:51:40;;;;;;;7.78;4.28;;;;;;;10.89;100.00;101461.88;5009392;28;20048;-83
2021/09/05 01:54:09;;;;;;;7.95;3.65;;;;;;;10.82;100.00;101467.25;5008273;28;20147;-82
2021/09/05 01:56:36;;;;;;;7.22;4.50;;;;;;;10.85;100.00;101457.53;4992243;28;20533;-83
2021/09/05 01:59:03;;;;;;;5.95;4.07;;;;;;;10.87;100.00;101460.16;4993560;28;21704;-82
2021/09/05 02:01:31;;;;;;;6.53;4.22;;;;;;;10.78;100.00;101469.03;5012256;28;20041;-82
2021/09/05 02:03:59;;;;;;;5.90;4.13;;;;;;;10.76;100.00;101472.56;5004668;28;20050;-83
2021/09/05 02:06:31;;;;;;;7.18;4.05;;;;;;;10.71;100.00;101468.22;5028004;28;20064;-84
2021/09/05 02:08:57;;;;;;;6.35;3.83;;;;;;;10.57;100.00;101472.72;5025423;28;20049;-82
2021/09/05 02:11:25;;;;;;;10.15;5.28;;;;;;;10.61;100.00;101469.19;5012740;28;20679;-82
2021/09/05 02:13:55;;;;;;;7.43;4.00;;;;;;;10.69;100.00;101471.75;5009736;28;20041;-82
2021/09/05 02:16:24;;;;;;;7.78;4.28;;;;;;;10.63;100.00;101471.81;5012621;28;20045;-83
2021/09/05 02:18:51;;;;;;;7.47;4.63;;;;;;;10.64;100.00;101468.28;5001019;28;20465;-82
2021/09/05 02:21:18;;;;;;;6.00;3.90;;;;;;;10.56;100.00;101472.72;5007755;28;20041;-82
2021/09/05 02:23:44;;;;;;;6.95;4.45;;;;;;;10.58;100.00;101470.94;5002961;28;20637;-83
2021/09/05 02:26:11;;;;;;;5.60;4.05;;;;;;;10.52;100.00;101465.72;5007561;28;20049;-84
2021/09/05 02:28:44;;;;;;;8.02;4.55;;;;;;;10.64;100.00;101473.56;5011996;28;20045;-82
2021/09/05 02:31:11;;;;;;;6.28;4.25;;;;;;;10.53;100.00;101478.06;5006764;28;20047;-83
2021/09/05 02:33:37;;;;;;;6.70;4.35;;;;;;;10.56;100.00;101476.25;4997325;28;20041;-83
2021/09/05 02:36:04;;;;;;;7.22;4.40;;;;;;;10.56;100.00;101486.81;5009998;28;20045;-83
2021/09/05 02:38:31;;;;;;;6.40;4.00;;;;;;;10.47;100.00;101480.72;4993155;28;20049;-82
2021/09/05 02:41:00;;;;;;;7.63;4.65;;;;;;;10.44;100.00;101492.22;5017866;28;20107;-82
2021/09/05 02:43:29;;;;;;;5.90;3.63;;;;;;;10.41;100.00;101489.56;5024175;28;20079;-85
2021/09/05 02:45:59;;;;;;;4.95;3.63;;;;;;;10.33;100.00;101486.97;4984382;28;20041;-84
2021/09/05 02:48:26;;;;;;;6.55;4.50;;;;;;;10.43;100.00;101490.47;4991360;28;20064;-82
2021/09/05 02:50:58;;;;;;;7.22;4.43;;;;;;;10.43;100.00;101487.81;5008738;28;20056;-82
2021/09/05 02:53:25;;;;;;;5.43;4.00;;;;;;;10.35;100.00;101493.16;5005962;28;20049;-83
2021/09/05 02:55:52;;;;;;;6.43;3.92;;;;;;;10.34;100.00;101487.84;4998325;28;20860;-83
2021/09/05 02:58:18;;;;;;;6.22;4.03;;;;;;;10.31;100.00;101494.03;4993425;28;20192;-83
2021/09/05 03:00:45;;;;;;;5.97;3.70;;;;;;;10.25;100.00;101493.19;5002358;28;20071;-82
2021/09/05 03:03:13;;;;;;;7.32;3.75;;;;;;;10.24;100.00;101494.06;5006143;28;20411;-83
2021/09/05 03:05:40;;;;;;;5.45;4.40;;;;;;;10.21;100.00;101499.34;5009126;28;20052;-83
2021/09/05 03:08:07;;;;;;;6.57;4.25;;;;;;;10.13;100.00;101502.03;5010100;28;20078;-83
2021/09/05 03:10:33;;;;;;;5.95;3.75;;;;;;;10.23;100.00;101505.53;5009045;28;20041;-83
2021/09/05 03:13:01;;;;;;;4.72;3.33;;;;;;;10.14;100.00;101506.41;4993823;28;20139;-84
2021/09/05 03:15:30;;;;;;;5.93;4.05;;;;;;;10.05;100.00;101512.63;5007535;28;20037;-82
2021/09/05 03:17:57;;;;;;;5.78;4.05;;;;;;;10.19;100.00;101507.28;5010505;28;20044;-83
2021/09/05 03:20:24;;;;;;;6.15;4.38;;;;;;;10.05;100.00;101507.34;4996583;28;20737;-82
2021/09/05 03:22:51;;;;;;;5.60;3.80;;;;;;;10.02;100.00;101507.38;5005215;28;20061;-83
2021/09/05 03:25:17;;;;;;;5.80;4.07;;;;;;;9.98;100.00;101510.00;5010796;28;20142;-83
2021/09/05 03:27:44;;;;;;;7.88;4.40;;;;;;;10.05;100.00;101509.09;5007390;28;20502;-82
2021/09/05 03:30:11;;;;;;;4.90;3.83;;;;;;;10.01;100.00;101502.97;4994844;28;20099;-83
2021/09/05 03:32:38;;;;;;;7.25;3.92;;;;;;;10.09;100.00;101511.75;5002787;28;20095;-83
2021/09/05 03:35:08;;;;;;;6.72;4.20;;;;;;;10.04;100.00;101504.72;5013764;28;20029;-83
2021/09/05 03:37:35;;;;;;;7.43;4.32;;;;;;;9.98;100.00;101510.88;4998199;28;20043;-84
2021/09/05 03:40:05;;;;;;;9.02;4.78;;;;;;;9.90;100.00;101515.31;5010338;28;20045;-82
2021/09/05 03:42:31;;;;;;;12.63;4.15;;;;;;;9.83;100.00;101516.22;5008185;28;20052;-84
2021/09/05 03:44:58;;;;;;;6.53;4.10;;;;;;;9.86;100.00;101511.84;5027191;28;20034;-83
2021/09/05 03:47:26;;;;;;;8.10;4.07;;;;;;;9.79;100.00;101519.78;4993665;28;20068;-83
2021/09/05 03:49:53;;;;;;;4.90;4.03;;;;;;;9.89;100.00;101524.13;4990904;28;20183;-82
2021/09/05 03:52:19;;;;;;;5.65;3.45;;;;;;;9.87;100.00;101521.50;5012347;28;20047;-82
2021/09/05 03:54:46;;;;;;;5.88;3.72;;;;;;;9.82;100.00;101525.03;5015231;28;20045;-82
2021/09/05 03:57:13;;;;;;;7.65;4.57;;;;;;;9.86;100.00;101525.03;5017417;28;20118;-83
2021/09/05 03:59:39;;;;;;;11.23;4.35;;;;;;;9.92;100.00;101528.50;5012950;28;20041;-82
2021/09/05 04:02:06;;;;;;;6.82;3.90;;;;;;;9.82;100.00;101517.13;4999000;28;20048;-82
2021/09/05 04:04:33;;;;;;;9.45;4.28;;;;;;;9.85;100.00;101528.56;4997791;28;20128;-82
2021/09/05 04:07:00;;;;;;;5.88;4.95;;;;;;;9.85;100.00;101527.69;4999943;28;20041;-83
2021/09/05 04:12:17;;;;;;;6.90;3.88;;;;;;;9.67;100.00;101536.53;5014271;28;20612;-83
2021/09/05 04:14:43;;;;;;;5.70;3.55;;;;;;;9.68;100.00;101534.78;5018407;28;20497;-82
2021/09/05 04:17:10;;;;;;;6.07;4.22;;;;;;;9.69;100.00;101536.53;5009131;28;20415;-82
2021/09/05 04:19:37;;;;;;;5.25;3.85;;;;;;;9.70;100.00;101535.66;5012896;28;20045;-82
2021/09/05 04:22:04;;;;;;;5.97;3.90;;;;;;;9.63;100.00;101539.19;4992513;28;20622;-82
2021/09/05 04:24:30;;;;;;;6.32;4.03;;;;;;;9.71;100.00;101535.63;5019941;28;20037;-82
2021/09/05 04:26:57;;;;;;;5.50;3.92;;;;;;;9.71;100.00;101540.03;5010213;28;20564;-81
2021/09/05 04:29:24;;;;;;;4.97;3.50;;;;;;;9.58;100.00;101540.06;5014881;28;20041;-81
2021/09/05 04:31:50;;;;;;;6.47;3.58;;;;;;;9.65;100.00;101542.69;4995251;28;20057;-82
2021/09/05 04:34:17;;;;;;;7.30;4.55;;;;;;;9.56;100.00;101552.38;5014484;28;20044;-81
2021/09/05 04:36:44;;;;;;;5.05;3.60;;;;;;;9.54;100.00;101546.22;5027649;28;20041;-82
2021/09/05 04:39:11;;;;;;;6.97;4.00;;;;;;;9.54;100.00;101548.88;4994036;28;20041;-82
2021/09/05 04:41:37;;;;;;;8.20;3.85;;;;;;;9.53;100.00;101557.66;5031346;28;20559;-82
2021/09/05 04:44:04;;;;;;;5.63;3.47;;;;;;;9.52;100.00;101553.28;5012777;28;20560;-81
2021/09/05 04:46:32;;;;;;;6.05;3.97;;;;;;;9.50;100.00;101554.13;5014563;28;20064;-82
2021/09/05 04:49:03;;;;;;;6.00;4.40;;;;;;;9.44;100.00;101567.34;4999840;28;20049;-82
2021/09/05 04:51:30;;;;;;;6.43;4.00;;;;;;;9.36;100.00;101569.13;5009182;28;20515;-82
2021/09/05 04:53:56;;;;;;;5.82;3.42;;;;;;;9.48;100.00;101561.19;4994849;28;20048;-82
2021/09/05 04:56:23;;;;;;;6.50;3.63;;;;;;;9.45;100.00;101564.72;5021636;28;20041;-82
2021/09/05 04:58:50;;;;;;;5.50;3.78;;;;;;;9.55;100.00;101574.34;5015571;28;20059;-82
2021/09/05 05:01:17;;;;;;;6.25;4.15;;;;;;;9.54;100.00;101571.72;4998213;28;20103;-82
2021/09/05 05:03:44;;;;;;;5.57;3.45;;;;;;;9.61;100.00;101575.25;5042136;28;20033;-82
2021/09/05 05:06:30;;;;;;;5.53;3.70;;;;;;;9.64;100.00;101581.38;5017000;28;20045;-82
2021/09/05 05:08:57;;;;;;;6.10;3.95;;;;;;;9.57;100.00;101580.50;5009100;28;20052;-82
2021/09/05 05:11:24;;;;;;;6.03;4.03;;;;;;;9.65;100.00;101583.13;5005034;28;20511;-82
2021/09/05 05:13:54;;;;;;;6.57;3.75;;;;;;;9.65;100.00;101592.81;4998968;28;20061;-82
2021/09/05 05:16:22;;;;;;;6.07;4.05;;;;;;;9.73;100.00;101581.34;5011686;28;20498;-81
2021/09/05 05:18:50;;;;;;;7.00;3.72;;;;;;;9.81;100.00;101589.25;4997032;28;20082;-82
2021/09/05 05:21:17;;;;;;;5.65;3.58;;;;;;;9.75;100.00;101597.19;5018111;28;20045;-81
2021/09/05 05:23:43;;;;;;;6.07;3.42;;;;;;;9.79;100.00;101598.94;5016358;28;20539;-82
2021/09/05 05:26:11;;;;;;;7.00;3.90;;;;;;;9.88;100.00;101594.53;5014545;28;20051;-82
2021/09/05 05:28:37;;;;;;;6.40;3.47;;;;;;;9.94;100.00;101595.41;5008645;28;20049;-82
2021/09/05 05:31:04;;;;;;;8.60;4.35;;;;;;;9.96;100.00;101599.78;4999684;28;20037;-82
2021/09/05 05:33:31;;;;;;;5.50;3.78;;;;;;;10.04;100.00;101607.69;4995156;28;20061;-82
2021/09/05 05:35:57;;;;;;;4.45;3.38;;;;;;;10.06;100.00;101609.41;5001567;28;20521;-82
2021/09/05 05:38:24;;;;;;;5.80;3.58;;;;;;;10.06;100.00;101598.88;5013192;28;20045;-82
2021/09/05 05:40:51;;;;;;;6.65;4.45;;;;;;;10.01;100.00;101605.94;5017060;28;20449;-82
2021/09/05 05:43:17;;;;;;;5.68;4.15;;;;;;;10.10;100.00;101605.03;5015342;28;20076;-82
2021/09/05 05:45:45;;;;;;;5.18;3.50;;;;;;;10.13;100.00;101607.66;5100482;22;20086;-81
2021/09/05 05:48:12;;;;;;;6.13;3.78;;;;;;;10.27;100.00;101610.28;5029806;28;20061;-81
2021/09/05 05:50:39;;;;;;;5.07;3.75;;;;;;;10.18;100.00;101610.28;5016185;28;20037;-81
2021/09/05 05:53:06;;;;;;;5.97;3.85;;;;;;;10.27;100.00;101615.56;5028232;28;20590;-82
2021/09/05 05:55:33;;;;;;;7.22;4.32;;;;;;;10.27;100.00;101608.53;4990858;28;20065;-81
2021/09/05 05:57:59;;;;;;;7.25;4.05;;;;;;;10.36;100.00;101616.41;5027406;28;20076;-81
2021/09/05 06:00:27;;;;;;;5.65;3.63;;;;;;;10.45;100.00;101619.88;5011225;28;20918;-82
2021/09/05 06:02:54;;;;;;;9.98;4.28;;;;;;;10.60;100.00;101618.06;5025638;28;20047;-81
2021/09/05 06:05:21;;;;;;;5.78;4.00;;;;;;;10.63;100.00;101622.44;4991176;28;20033;-82
2021/09/05 06:07:47;;;;;;;6.90;3.30;;;;;;;10.66;100.00;101620.63;5024248;28;20048;-82
2021/09/05 06:10:14;;;;;;;6.10;3.83;;;;;;;10.75;100.00;101616.19;5013435;28;20060;-81
2021/09/05 06:12:41;;;;;;;6.15;4.18;;;;;;;10.73;100.00;101621.50;5014100;28;20064;-82
2021/09/05 06:15:09;;;;;;;5.70;4.22;;;;;;;11.00;100.00;101631.00;5013147;28;20051;-82
2021/09/05 06:17:35;;;;;;;5.47;4.22;;;;;;;11.03;100.00;101631.00;5008554;28;20103;-82
2021/09/05 06:20:07;;;;;;;8.25;3.85;;;;;;;11.24;100.00;101624.66;5028237;28;20098;-82
2021/09/05 06:22:34;;;;;;;6.22;3.78;;;;;;;11.33;100.00;101629.00;5029718;28;20068;-81
2021/09/05 06:25:01;;;;;;;6.50;4.32;;;;;;;11.44;100.00;101625.41;5026474;28;20681;-81
2021/09/05 06:27:28;;;;;;;7.28;4.15;;;;;;;11.66;100.00;101623.41;5029753;28;20065;-82
2021/09/05 06:29:55;;;;;;;5.60;4.07;;;;;;;12.25;100.00;101629.88;5012072;28;20131;-82
2021/09/05 06:32:21;;;;;;;5.68;3.30;;;;;;;13.18;96.74;101627.69;5029746;28;20106;-81
2021/09/05 06:34:48;;;;;;;4.47;3.30;;;;;;;14.27;91.70;101621.34;5033871;28;20040;-82
2021/09/05 06:37:15;;;;;;;6.40;3.63;;;;;;;14.56;85.30;101637.59;5013982;28;20049;-81
2021/09/05 06:39:42;;;;;;;5.47;3.35;;;;;;;14.59;80.26;101631.34;5012047;28;20113;-81
2021/09/05 06:42:10;;;;;;;5.05;2.97;;;;;;;14.99;75.93;101630.47;5010980;28;20053;-82
2021/09/05 06:44:38;;;;;;;6.35;3.50;;;;;;;15.62;75.13;101627.13;5013964;28;20067;-84
2021/09/05 06:47:05;;;;;;;4.93;3.63;;;;;;;15.78;73.17;101625.81;5009791;28;20136;-82
2021/09/05 06:49:32;;;;;;;6.32;3.42;;;;;;;15.95;71.58;101628.91;5015411;28;20045;-83
2021/09/05 06:52:00;;;;;;;5.22;3.47;;;;;;;16.40;72.31;101635.69;5026383;28;20041;-82
2021/09/05 06:54:26;;;;;;;9.55;3.50;;;;;;;15.90;67.78;101636.19;5022583;28;20041;-83
2021/09/05 06:56:53;;;;;;;6.40;3.70;;;;;;;15.83;72.20;101642.56;5026763;28;20161;-81
2021/09/05 06:59:20;;;;;;;5.85;3.78;;;;;;;15.84;71.03;101640.78;5021994;28;20457;-82
2021/09/05 07:01:47;;;;;;;7.50;4.00;;;;;;;16.48;71.89;101655.88;5028704;28;20037;-83
2021/09/05 07:04:14;;;;;;;7.00;3.40;;;;;;;16.33;69.52;101646.50;5005852;28;20042;-82
2021/09/05 07:06:41;;;;;;;6.30;3.50;;;;;;;16.71;68.28;101655.22;5010547;28;20513;-82
2021/09/05 07:09:09;;;;;;;5.65;3.38;;;;;;;16.49;67.44;101640.75;5029965;28;20041;-81
2021/09/05 07:11:37;;;;;;;4.35;3.58;;;;;;;15.68;70.60;101646.50;5013207;28;20529;-82
2021/09/05 07:14:04;;;;;;;4.93;3.40;;;;;;;16.05;69.17;101658.84;5029013;28;20064;-83
2021/09/05 07:16:31;;;;;;;6.53;3.58;;;;;;;16.39;68.76;101660.56;5012785;28;20037;-81
2021/09/05 07:19:00;;;;;;;6.13;4.18;;;;;;;16.27;70.43;101654.69;4987853;28;20049;-82
2021/09/05 07:21:27;;;;;;;7.07;3.90;;;;;;;15.88;69.40;101655.75;5010496;28;20083;-82
2021/09/05 07:23:54;;;;;;;5.45;3.53;;;;;;;16.03;74.32;101664.22;5012009;28;20094;-81
2021/09/05 07:26:21;;;;;;;6.25;3.65;;;;;;;16.10;72.22;101658.75;5015369;28;20069;-82
2021/09/05 07:28:51;;;;;;;5.88;3.70;;;;;;;16.01;71.09;101665.19;5034626;28;20037;-83
2021/09/05 07:31:19;;;;;;;4.88;3.63;;;;;;;15.98;73.60;101663.50;5009371;28;20510;-84
2021/09/05 07:33:46;;;;;;;6.18;3.70;;;;;;;15.52;73.38;101658.44;5030428;28;20040;-83
2021/09/05 07:36:13;;;;;;;6.47;3.72;;;;;;;15.60;71.37;101664.44;5028575;28;20037;-83
2021/09/05 07:38:40;;;;;;;8.23;4.10;;;;;;;15.59;71.36;101661.81;4997222;28;20042;-84
2021/09/05 07:41:07;;;;;;;6.30;3.97;;;;;;;15.58;76.50;101663.63;5010308;28;20041;-83
2021/09/05 07:43:33;;;;;;;5.95;3.60;;;;;;;15.14;73.31;101668.25;5024446;28;20052;-84
2021/09/05 07:46:00;;;;;;;7.22;4.38;;;;;;;15.27;75.39;101666.16;5016652;28;20059;-84
2021/09/05 07:48:27;;;;;;;6.43;3.72;;;;;;;15.42;81.07;101673.78;5011281;28;20588;-83
2021/09/05 07:50:54;;;;;;;7.13;4.03;;;;;;;15.46;79.64;101678.09;5014680;28;20041;-82
2021/09/05 07:53:21;;;;;;;6.30;4.07;;;;;;;15.52;73.14;101682.41;5016575;28;20401;-83
2021/09/05 07:55:48;;;;;;;6.97;3.78;;;;;;;15.54;76.46;101680.56;4995145;28;20057;-85
2021/09/05 07:58:15;;;;;;;7.55;3.85;;;;;;;15.54;74.47;101675.25;5026046;28;20170;-82
2021/09/05 08:00:42;;;;;;;6.22;3.67;;;;;;;15.56;75.20;101675.22;5013985;28;20139;-83
2021/09/05 08:03:09;;;;;;;4.82;3.40;;;;;;;15.58;74.02;101681.38;5015440;28;20045;-82
2021/09/05 08:05:36;;;;;;;7.13;4.15;;;;;;;15.48;72.94;101686.06;5017701;28;20104;-82
2021/09/05 08:08:03;;;;;;;10.20;4.60;;;;;;;15.42;72.49;101687.09;5015063;28;20548;-85
2021/09/05 08:10:31;;;;;;;7.50;4.45;;;;;;;15.59;73.78;101688.47;5013386;28;20106;-83
2021/09/05 08:12:58;;;;;;;7.95;3.97;;;;;;;15.14;74.43;101692.19;5026445;28;20509;-82
2021/09/05 08:15:26;;;;;;;6.28;4.20;;;;;;;15.37;74.51;101691.63;5003982;28;20065;-81
2021/09/05 08:17:53;;;;;;;7.55;4.15;;;;;;;15.38;75.79;101700.50;5028614;28;20267;-82
2021/09/05 08:20:20;;;;;;;6.68;4.30;;;;;;;15.43;74.32;101694.16;5021733;28;20549;-81
2021/09/05 08:22:47;;;;;;;5.15;3.75;;;;;;;15.56;78.25;101702.75;5007717;28;20399;-81
2021/09/05 08:25:14;;;;;;;6.13;4.38;;;;;;;15.73;74.60;101708.56;5030541;28;20051;-81
2021/09/05 08:27:41;;;;;;;10.15;4.30;;;;;;;15.57;74.42;101704.50;5029210;28;20040;-80
2021/09/05 08:30:09;;;;;;;8.48;4.13;;;;;;;15.74;73.61;101712.09;5028125;28;20113;-82
2021/09/05 08:32:35;;;;;;;5.93;4.05;;;;;;;15.74;73.18;101715.63;5033032;28;20041;-84
2021/09/05 08:35:03;;;;;;;6.50;4.38;;;;;;;15.85;74.58;101715.34;5033658;28;20041;-82
2021/09/05 08:37:30;;;;;;;7.15;4.20;;;;;;;15.90;75.68;101721.44;4995969;28;20103;-81
2021/09/05 08:39:57;;;;;;;8.40;4.47;;;;;;;16.17;73.96;101719.84;5019702;28;20132;-81
2021/09/05 08:42:24;;;;;;;5.68;4.18;;;;;;;16.28;74.25;101714.22;5028136;28;20422;-81
2021/09/05 08:44:51;;;;;;;7.03;4.55;;;;;;;16.32;70.64;101722.09;5014167;28;20045;-81
2021/09/05 08:47:18;;;;;;;8.60;5.28;;;;;;;15.97;68.78;101728.34;5029701;28;20144;-82
2021/09/05 08:49:47;;;;;;;5.88;4.35;;;;;;;16.26;70.36;101724.94;5014775;28;20387;-81
2021/09/05 08:52:14;;;;;;;9.82;4.68;;;;;;;16.30;72.82;101723.91;4998337;28;20049;-80
2021/09/05 08:54:41;;;;;;;6.40;4.70;;;;;;;16.37;70.99;101721.09;5012601;28;20499;-80
2021/09/05 08:57:08;;;;;;;5.93;3.92;;;;;;;16.32;70.46;101727.44;5027504;28;20095;-80
2021/09/05 08:59:35;;;;;;;7.75;4.65;;;;;;;16.49;71.70;101731.44;5015010;28;20413;-80
2021/09/05 09:02:02;;;;;;;6.63;4.47;;;;;;;16.71;72.65;101721.03;5014388;28;20048;-80
2021/09/05 09:04:40;;;;;;;6.22;4.95;;;;;;;16.84;70.24;101728.66;5030508;28;20041;-80
2021/09/05 09:07:12;;;;;;;8.18;4.45;;;;;;;16.82;70.95;101729.63;5009725;28;20041;-80
2021/09/05 09:09:52;;;;;;;7.80;5.22;;;;;;;17.12;70.70;101725.16;4993824;28;20061;-80
2021/09/05 09:12:34;;;;;;;6.05;3.83;;;;;;;17.39;67.38;101713.59;5026765;28;20514;-80
2021/09/05 09:15:02;;;;;;;7.60;4.70;;;;;;;17.41;67.19;101719.78;5035700;28;20033;-79
2021/09/05 09:17:37;;;;;;;10.57;5.53;;;;;;;17.30;65.58;101723.69;5025731;28;20059;-80
2021/09/05 09:20:04;;;;;;;9.88;4.93;;;;;;;17.36;67.10;101727.06;5029524;28;20043;-79
2021/09/05 09:22:32;;;;;;;9.07;5.45;;;;;;;17.26;65.58;101717.59;5014171;28;20049;-81
2021/09/05 09:24:59;;;;;;;14.65;10.27;;;;;;;17.44;67.35;101719.69;4999747;28;21484;-81
2021/09/05 09:27:26;;;;;;;40.33;25.13;;;;;;;17.54;67.99;101728.25;5000177;28;20090;-80
2021/09/05 09:29:57;;;;;;;15.85;10.70;;;;;;;17.68;64.48;101723.34;5046318;28;20052;-80
2021/09/05 09:32:26;;;;;;;12.10;8.35;;;;;;;17.99;66.26;101715.22;5030905;28;20083;-81
2021/09/05 09:34:53;;;;;;;21.13;11.10;;;;;;;17.99;64.95;101717.91;5026830;28;20041;-81
2021/09/05 09:37:21;;;;;;;34.47;20.15;;;;;;;18.04;65.57;101714.16;5020706;28;20091;-80
2021/09/05 09:39:56;;;;;;;19.92;11.45;;;;;;;18.15;66.35;101717.34;5018397;28;20417;-80
2021/09/05 09:42:40;;;;;;;13.52;8.88;;;;;;;18.26;64.30;101715.16;5044293;28;20053;-81
2021/09/05 09:45:14;;;;;;;8.85;5.30;;;;;;;18.00;62.54;101708.06;4997504;28;20157;-82
2021/09/05 09:47:46;;;;;;;8.50;5.05;;;;;;;18.35;63.78;101706.81;5025721;28;20497;-82
2021/09/05 09:50:14;;;;;;;8.35;5.60;;;;;;;18.37;63.64;101709.44;5014872;28;20049;-82
2021/09/05 09:52:43;;;;;;;22.30;14.75;;;;;;;18.53;63.38;101707.94;5013875;28;20520;-81
2021/09/05 09:55:11;;;;;;;11.27;6.03;;;;;;;18.43;63.10;101707.41;4994611;28;20042;-79
2021/09/05 09:57:38;;;;;;;6.95;4.60;;;;;;;18.13;63.86;101716.53;5005775;28;20689;-79
2021/09/05 10:00:06;;;;;;;24.80;15.38;;;;;;;18.60;63.32;101712.16;5028843;28;20053;-81
2021/09/05 10:02:35;;;;;;;20.67;11.48;;;;;;;18.91;63.01;101713.69;5023746;28;20064;-80
2021/09/05 10:05:03;;;;;;;26.17;14.57;;;;;;;19.07;62.62;101714.84;5012311;28;20041;-81
2021/09/05 10:07:31;;;;;;;10.48;6.10;;;;;;;19.14;60.71;101708.31;5010799;28;20140;-81
2021/09/05 10:09:59;;;;;;;9.95;6.45;;;;;;;19.24;61.92;101701.63;5023623;28;20048;-81
2021/09/05 10:12:26;;;;;;;8.48;5.20;;;;;;;18.73;60.64;101707.22;4993046;28;20514;-81
2021/09/05 10:14:55;;;;;;;6.95;5.18;;;;;;;19.19;63.70;101708.13;5023549;28;20036;-81
2021/09/05 10:17:23;;;;;;;14.63;8.73;;;;;;;19.10;61.08;101695.97;5008832;28;20413;-81
2021/09/05 10:19:50;;;;;;;20.48;10.88;;;;;;;19.29;61.81;101688.94;5028522;28;20479;-81
2021/09/05 10:22:19;;;;;;;10.13;5.97;;;;;;;19.41;61.20;101699.16;5013976;28;20061;-82
2021/09/05 10:24:53;;;;;;;30.27;8.50;;;;;;;19.61;60.28;101698.38;4993329;28;20072;-81
2021/09/05 10:27:37;;;;;;;7.68;5.63;;;;;;;19.82;60.40;101696.59;5016075;28;20753;-80
2021/09/05 10:30:07;;;;;;;;;;;;;;;19.95;58.49;101696.97;5009886;28;20037;-81
2021/09/05 10:32:58;;;;;;;8.55;5.07;;;;;;;19.98;58.96;101693.25;5019119;28;20826;-82
2021/09/05 10:35:25;;;;;;;9.18;6.28;;;;;;;20.04;59.56;101693.88;5009179;28;20419;-82
2021/09/05 10:40:41;;;;;;;21.65;14.18;;;;;;;20.18;58.36;101695.97;5021636;28;20041;-81
2021/09/05 10:43:14;;;;;;;7.85;5.15;;;;;;;20.07;58.29;101690.19;5008104;28;20052;-81
2021/09/05 10:45:46;;;;;;;8.18;5.03;;;;;;;20.14;58.80;101688.97;4988253;28;20037;-81
2021/09/05 10:48:43;;;;;;;7.88;4.88;;;;;;;19.57;56.45;101690.53;4998009;28;20049;-81
2021/09/05 10:51:11;;;;;;;10.27;5.93;;;;;;;19.88;58.86;101690.13;5022152;28;20072;-80
2021/09/05 10:53:51;;;;;;;12.02;7.03;;;;;;;20.07;59.69;101691.06;5008392;28;20056;-81
2021/09/05 10:56:32;;;;;;;9.40;6.15;;;;;;;20.01;58.33;101691.34;5009984;28;20193;-81
2021/09/05 10:59:04;;;;;;;9.57;5.70;;;;;;;20.20;58.75;101683.34;5011992;28;20075;-81
2021/09/05 11:01:41;;;;;;;9.57;5.82;;;;;;;20.20;58.22;101694.09;5015640;28;20053;-81
2021/09/05 11:04:12;;;;;;;10.55;7.70;;;;;;;20.40;57.95;101686.00;5046459;28;20294;-81
2021/09/05 11:06:45;;;;;;;6.88;5.15;;;;;;;20.68;58.46;101688.34;5031201;28;20048;-79
2021/09/05 11:09:22;;;;;;;51.25;31.23;;;;;;;20.66;57.92;101690.22;5025583;28;20048;-80
2021/09/05 11:12:11;;;;;;;9.73;6.20;;;;;;;20.73;58.03;101690.81;5011907;28;20504;-80
2021/09/05 11:14:51;;;;;;;8.50;4.60;;;;;;;20.67;56.14;101678.53;5030394;28;20137;-81
2021/09/05 11:17:31;;;;;;;8.40;5.15;;;;;;;20.72;56.46;101675.63;5012777;28;20136;-81
2021/09/05 11:20:18;;;;;;;12.20;7.80;;;;;;;21.04;55.41;101687.56;5011444;28;20048;-80
2021/09/05 11:22:47;;;;;;;7.90;5.90;;;;;;;20.90;56.52;101688.19;5011220;28;20518;-80
2021/09/05 11:25:26;;;;;;;17.92;11.70;;;;;;;20.93;56.56;101690.72;5028673;28;20052;-81
2021/09/05 11:28:06;;;;;;;8.40;5.82;;;;;;;21.12;55.95;101684.50;4999056;28;20037;-79
2021/09/05 11:30:59;;;;;;;33.53;21.88;;;;;;;21.29;57.10;101676.53;4998288;28;20045;-80
2021/09/05 11:33:28;;;;;;;11.27;6.25;;;;;;;21.38;54.66;101675.19;5029891;28;20063;-79